createdAt,value
2023-06-13T00:01:09.980Z,3.80
2023-06-13T00:03:38.375Z,3.43
2023-06-13T00:06:08.549Z,2.93
2023-06-13T00:08:36.452Z,3.30
2023-06-13T00:11:04.379Z,2.90
2023-06-13T00:13:32.220Z,3.00
2023-06-13T00:16:01.104Z,2.90
2023-06-13T00:18:31.894Z,2.87
2023-06-13T00:21:00.561Z,3.00
2023-06-13T00:23:29.808Z,3.33
2023-06-13T00:25:57.972Z,3.07
2023-06-13T00:28:26.090Z,2.60
2023-06-13T00:30:54.114Z,2.80
2023-06-13T00:33:22.313Z,2.87
2023-06-13T00:35:50.208Z,2.90
2023-06-13T00:38:24.187Z,2.60
2023-06-13T00:40:53.570Z,2.80
2023-06-13T00:43:21.561Z,2.80
2023-06-13T00:45:49.473Z,3.03
2023-06-13T00:48:18.040Z,2.90
2023-06-13T00:50:46.736Z,3.10
2023-06-13T00:53:18.035Z,2.90
2023-06-13T00:55:46.908Z,3.27
2023-06-13T00:58:17.931Z,2.67
2023-06-13T01:00:46.702Z,3.10
2023-06-13T01:03:17.110Z,2.77
2023-06-13T01:05:46.097Z,3.13
2023-06-13T01:08:17.730Z,2.87
2023-06-13T01:10:48.337Z,3.00
2023-06-13T01:13:20.933Z,2.97
2023-06-13T01:15:54.308Z,3.47
2023-06-13T01:18:25.970Z,3.40
2023-06-13T01:20:57.388Z,3.47
2023-06-13T01:23:39.373Z,3.70
2023-06-13T01:26:14.922Z,3.73
2023-06-13T01:28:46.284Z,3.60
2023-06-13T01:31:17.813Z,3.60
2023-06-13T01:33:46.165Z,3.80
2023-06-13T01:36:15.190Z,3.70
2023-06-13T01:38:43.204Z,3.50
2023-06-13T01:41:11.085Z,3.90
2023-06-13T01:43:38.984Z,3.47
2023-06-13T01:46:12.306Z,4.07
2023-06-13T01:48:47.130Z,3.70
2023-06-13T01:51:20.801Z,3.70
2023-06-13T01:53:53.604Z,3.53
2023-06-13T01:56:24.130Z,3.70
2023-06-13T01:58:57.140Z,3.70
2023-06-13T02:01:28.061Z,3.90
2023-06-13T02:03:56.696Z,3.67
2023-06-13T02:06:24.722Z,3.93
2023-06-13T02:08:53.631Z,3.73
2023-06-13T02:11:21.667Z,3.50
2023-06-13T02:13:50.948Z,3.37
2023-06-13T02:16:19.252Z,3.53
2023-06-13T02:18:49.072Z,3.70
2023-06-13T02:21:17.106Z,3.37
2023-06-13T02:23:45.663Z,3.50
2023-06-13T02:26:14.526Z,3.97
2023-06-13T02:28:42.661Z,3.60
2023-06-13T02:31:10.949Z,3.30
2023-06-13T02:33:39.142Z,3.20
2023-06-13T02:36:08.681Z,3.13
2023-06-13T02:38:37.545Z,3.17
2023-06-13T02:41:05.526Z,3.00
2023-06-13T02:43:33.432Z,3.30
2023-06-13T02:46:01.674Z,3.20
2023-06-13T02:48:29.736Z,3.47
2023-06-13T02:50:58.421Z,3.30
2023-06-13T02:53:27.749Z,3.50
2023-06-13T02:55:55.922Z,3.23
2023-06-13T02:58:23.959Z,3.13
2023-06-13T03:00:52.881Z,3.40
2023-06-13T03:03:25.713Z,3.43
2023-06-13T03:05:58.218Z,3.67
2023-06-13T03:08:32.799Z,3.60
2023-06-13T03:11:01.240Z,3.97
2023-06-13T03:13:29.661Z,3.97
2023-06-13T03:15:58.694Z,4.17
2023-06-13T03:18:28.562Z,4.10
2023-06-13T03:20:57.525Z,4.20
2023-06-13T03:23:26.473Z,4.23
2023-06-13T03:25:56.762Z,4.00
2023-06-13T03:28:25.041Z,3.93
2023-06-13T03:30:56.034Z,3.67
2023-06-13T03:33:24.396Z,4.40
2023-06-13T03:35:54.418Z,4.13
2023-06-13T03:38:28.627Z,3.63
2023-06-13T03:40:58.432Z,4.03
2023-06-13T03:43:27.627Z,4.27
2023-06-13T03:45:55.775Z,4.07
2023-06-13T03:48:24.661Z,4.20
2023-06-13T03:50:52.664Z,3.90
2023-06-13T03:53:21.127Z,3.97
2023-06-13T03:55:51.054Z,4.57
2023-06-13T03:58:22.068Z,3.80
2023-06-13T04:00:50.099Z,4.13
2023-06-13T04:03:18.383Z,4.10
2023-06-13T04:05:46.418Z,3.77
2023-06-13T04:08:14.323Z,4.27
2023-06-13T04:10:42.187Z,3.60
2023-06-13T04:13:10.093Z,3.40
2023-06-13T04:15:39.397Z,3.70
2023-06-13T04:18:08.020Z,3.73
2023-06-13T04:20:37.941Z,3.37
2023-06-13T04:23:06.064Z,3.60
2023-06-13T04:25:34.397Z,3.87
2023-06-13T04:28:02.428Z,4.27
2023-06-13T04:30:31.892Z,4.17
2023-06-13T04:33:03.471Z,3.83
2023-06-13T04:35:38.399Z,3.87
2023-06-13T04:38:06.412Z,4.03
2023-06-13T04:40:34.464Z,3.67
2023-06-13T04:43:05.070Z,3.97
2023-06-13T04:45:34.177Z,3.10
2023-06-13T04:48:04.378Z,3.60
2023-06-13T04:50:34.160Z,3.77
2023-06-13T04:53:02.130Z,3.40
2023-06-13T04:55:33.735Z,3.60
2023-06-13T04:58:01.980Z,3.40
2023-06-13T05:00:30.490Z,3.20
2023-06-13T05:03:01.666Z,3.77
2023-06-13T05:05:31.476Z,3.40
2023-06-13T05:08:00.713Z,3.47
2023-06-13T05:10:29.781Z,3.57
2023-06-13T05:12:58.697Z,3.80
2023-06-13T05:15:26.705Z,3.90
2023-06-13T05:17:58.540Z,4.17
2023-06-13T05:20:28.744Z,3.83
2023-06-13T05:22:58.147Z,4.03
2023-06-13T05:25:28.371Z,4.30
2023-06-13T05:27:56.902Z,4.10
2023-06-13T05:30:25.032Z,3.50
2023-06-13T05:32:53.418Z,3.67
2023-06-13T05:35:21.456Z,4.10
2023-06-13T05:37:49.981Z,4.60
2023-06-13T05:40:19.663Z,4.30
2023-06-13T05:42:47.584Z,3.73
2023-06-13T05:45:15.522Z,4.63
2023-06-13T05:47:43.515Z,4.50
2023-06-13T05:50:13.010Z,5.40
2023-06-13T05:52:41.098Z,4.50
2023-06-13T05:55:09.590Z,4.57
2023-06-13T05:57:42.830Z,4.20
2023-06-13T06:00:14.629Z,4.53
2023-06-13T06:02:43.952Z,4.33
2023-06-13T06:05:12.743Z,4.00
2023-06-13T06:07:41.056Z,4.17
2023-06-13T06:10:10.239Z,3.70
2023-06-13T06:12:38.405Z,3.83
2023-06-13T06:15:08.705Z,5.70
2023-06-13T06:17:37.014Z,3.83
2023-06-13T06:20:07.306Z,4.20
2023-06-13T06:22:35.292Z,4.20
2023-06-13T06:25:03.162Z,4.00
2023-06-13T06:27:31.105Z,4.17
2023-06-13T06:29:59.117Z,4.00
2023-06-13T06:32:28.394Z,4.00
2023-06-13T06:34:56.347Z,4.10
2023-06-13T06:37:25.821Z,3.80
2023-06-13T06:39:53.789Z,4.00
2023-06-13T06:42:21.824Z,4.30
2023-06-13T06:45:11.005Z,3.80
2023-06-13T06:47:40.377Z,3.77
2023-06-13T06:50:08.503Z,3.43
2023-06-13T06:52:36.564Z,3.80
2023-06-13T06:55:04.794Z,3.60
2023-06-13T06:57:32.711Z,4.10
2023-06-13T07:00:00.721Z,3.83
2023-06-13T07:02:28.648Z,4.13
2023-06-13T07:04:59.053Z,3.83
2023-06-13T07:07:26.950Z,3.50
2023-06-13T07:09:54.953Z,4.27
2023-06-13T07:12:22.929Z,3.77
2023-06-13T07:14:50.938Z,3.70
2023-06-13T07:17:18.935Z,3.70
2023-06-13T07:19:47.016Z,3.73
2023-06-13T07:22:16.235Z,4.20
2023-06-13T07:24:44.335Z,4.13
2023-06-13T07:27:13.158Z,3.70
2023-06-13T07:29:41.441Z,3.63
2023-06-13T07:32:10.217Z,3.60
2023-06-13T07:37:09.065Z,4.17
2023-06-13T07:39:38.300Z,3.97
2023-06-13T07:42:07.562Z,3.97
2023-06-13T07:44:35.723Z,3.50
2023-06-13T07:47:03.713Z,3.70
2023-06-13T07:49:32.114Z,4.30
2023-06-13T07:52:00.243Z,4.30
2023-06-13T07:54:28.232Z,4.07
2023-06-13T07:57:00.982Z,3.77
2023-06-13T07:59:29.331Z,3.97
2023-06-13T08:01:57.244Z,3.83
2023-06-13T08:04:29.053Z,3.80
2023-06-13T08:07:05.365Z,3.57
2023-06-13T08:09:33.344Z,3.57
2023-06-13T08:12:02.931Z,3.73
2023-06-13T08:14:30.866Z,4.23
2023-06-13T08:16:59.722Z,3.63
2023-06-13T08:19:27.598Z,3.60
2023-06-13T08:21:55.608Z,3.87
2023-06-13T08:24:23.908Z,4.03
2023-06-13T08:26:53.596Z,4.03
2023-06-13T08:29:24.645Z,4.00
2023-06-13T08:31:52.671Z,3.90
2023-06-13T08:34:21.389Z,4.03
2023-06-13T08:36:49.792Z,3.93
2023-06-13T08:39:18.110Z,4.40
2023-06-13T08:41:46.439Z,3.97
2023-06-13T08:44:14.552Z,3.90
2023-06-13T08:46:43.886Z,3.53
2023-06-13T08:49:12.191Z,3.90
2023-06-13T08:51:40.073Z,3.50
2023-06-13T08:54:09.255Z,3.70
2023-06-13T08:56:44.583Z,3.80
2023-06-13T08:59:16.784Z,4.00
2023-06-13T09:01:46.670Z,3.90
2023-06-13T09:04:14.933Z,3.80
2023-06-13T09:06:44.872Z,3.87
2023-06-13T09:09:13.562Z,3.57
2023-06-13T09:11:41.611Z,4.07
2023-06-13T09:14:10.044Z,4.13
2023-06-13T09:16:38.584Z,4.03
2023-06-13T09:19:07.892Z,4.00
2023-06-13T09:21:37.899Z,4.07
2023-06-13T09:24:09.216Z,4.03
2023-06-13T09:26:37.216Z,4.00
2023-06-13T09:29:21.083Z,3.83
2023-06-13T09:31:51.277Z,3.70
2023-06-13T09:34:21.692Z,3.47
2023-06-13T09:36:50.115Z,3.90
2023-06-13T09:39:18.110Z,3.77
2023-06-13T09:41:46.030Z,3.50
2023-06-13T09:44:14.368Z,3.73
2023-06-13T09:46:42.867Z,3.70
2023-06-13T09:49:10.800Z,4.10
2023-06-13T09:51:41.692Z,3.60
2023-06-13T09:54:10.304Z,3.50
2023-06-13T09:56:38.322Z,3.73
2023-06-13T09:59:06.242Z,3.33
2023-06-13T10:01:36.197Z,3.57
2023-06-13T10:04:06.854Z,3.63
2023-06-13T10:06:34.806Z,3.30
2023-06-13T10:09:04.168Z,3.60
2023-06-13T10:11:35.265Z,4.23
2023-06-13T10:14:07.842Z,3.80
2023-06-13T10:16:43.763Z,3.30
2023-06-13T10:19:20.732Z,3.43
2023-06-13T10:24:22.074Z,3.50
2023-06-13T10:26:50.281Z,4.10
2023-06-13T10:29:31.863Z,3.50
2023-06-13T10:32:10.149Z,2.80
2023-06-13T10:34:50.020Z,3.30
2023-06-13T10:37:47.021Z,3.00
2023-06-13T10:40:59.069Z,3.13
2023-06-13T10:43:32.274Z,3.10
2023-06-13T10:46:03.052Z,3.40
2023-06-13T10:48:37.536Z,3.60
2023-06-13T10:51:06.433Z,3.67
2023-06-13T10:53:35.262Z,3.20
2023-06-13T10:56:05.006Z,3.00
2023-06-13T10:58:32.888Z,2.70
2023-06-13T11:01:05.951Z,3.13
2023-06-13T11:03:34.416Z,3.50
2023-06-13T11:06:07.568Z,2.97
2023-06-13T11:08:38.065Z,3.00
2023-06-13T11:11:07.449Z,3.13
2023-06-13T11:13:36.488Z,3.43
2023-06-13T11:16:19.187Z,3.13
2023-06-13T11:18:48.498Z,3.17
2023-06-13T11:21:16.627Z,3.23
2023-06-13T11:23:52.447Z,3.20
2023-06-13T11:26:22.518Z,2.93
2023-06-13T11:28:55.014Z,3.00
2023-06-13T11:31:23.157Z,3.23
2023-06-13T11:33:53.583Z,3.10
2023-06-13T11:36:25.179Z,2.90
2023-06-13T11:39:00.072Z,2.93
2023-06-13T11:41:29.669Z,2.80
2023-06-13T11:43:57.982Z,3.00
2023-06-13T11:46:25.978Z,2.90
2023-06-13T11:48:57.123Z,2.97
2023-06-13T11:51:25.786Z,3.20
2023-06-13T11:53:54.870Z,2.70
2023-06-13T11:56:24.936Z,3.23
2023-06-13T11:58:55.285Z,2.80
2023-06-13T12:01:28.380Z,3.10
2023-06-13T12:03:59.155Z,2.90
2023-06-13T12:06:27.943Z,3.13
2023-06-13T12:08:55.809Z,3.13
2023-06-13T12:11:26.903Z,3.20
2023-06-13T12:13:58.071Z,3.00
2023-06-13T12:16:29.333Z,3.33
2023-06-13T12:18:57.873Z,2.93
2023-06-13T12:21:28.493Z,2.70
2023-06-13T12:23:57.654Z,2.73
2023-06-13T12:26:26.076Z,2.97
2023-06-13T12:28:59.333Z,3.10
2023-06-13T12:31:33.435Z,2.70
2023-06-13T12:34:14.528Z,2.80
2023-06-13T12:36:45.349Z,2.73
2023-06-13T12:39:15.455Z,3.10
2023-06-13T12:41:48.998Z,3.47
2023-06-13T12:44:19.239Z,3.00
2023-06-13T12:46:47.742Z,2.77
2023-06-13T12:49:16.996Z,3.37
2023-06-13T12:51:45.837Z,2.70
2023-06-13T12:54:17.332Z,3.13
2023-06-13T12:56:53.211Z,2.87
2023-06-13T12:59:30.021Z,2.90
2023-06-13T13:01:57.994Z,3.00
2023-06-13T13:04:30.616Z,3.07
2023-06-13T13:06:58.852Z,2.90
2023-06-13T13:09:27.208Z,4.10
2023-06-13T13:11:56.901Z,2.83
2023-06-13T13:14:27.029Z,2.50
2023-06-13T13:16:55.342Z,3.30
2023-06-13T13:19:23.709Z,3.00
2023-06-13T13:21:51.937Z,3.33
2023-06-13T13:24:20.397Z,2.70
2023-06-13T13:26:49.901Z,3.40
2023-06-13T13:29:18.057Z,3.73
2023-06-13T13:31:48.107Z,3.23
2023-06-13T13:34:23.039Z,3.60
2023-06-13T13:36:54.798Z,6.40
2023-06-13T13:39:24.203Z,3.20
2023-06-13T13:41:52.321Z,2.70
2023-06-13T13:44:20.376Z,2.70
2023-06-13T13:46:49.556Z,2.57
2023-06-13T13:49:17.635Z,2.80
2023-06-13T13:51:48.747Z,2.77
2023-06-13T13:54:16.918Z,2.67
2023-06-13T13:56:45.513Z,2.60
2023-06-13T13:59:13.955Z,2.70
2023-06-13T14:01:41.995Z,2.40
2023-06-13T14:04:14.573Z,2.63
2023-06-13T14:06:42.894Z,2.90
2023-06-13T14:09:12.164Z,2.60
2023-06-13T14:11:40.165Z,3.50
2023-06-13T14:14:08.219Z,2.67
2023-06-13T14:16:36.940Z,2.83
2023-06-13T14:19:04.979Z,2.90
2023-06-13T14:21:34.475Z,2.60
2023-06-13T14:24:02.590Z,2.73
2023-06-13T14:26:33.822Z,2.80
2023-06-13T14:29:01.833Z,2.90
2023-06-13T14:31:30.046Z,2.90
2023-06-13T14:33:58.243Z,6.20
2023-06-13T14:36:26.294Z,2.47
2023-06-13T14:38:55.601Z,2.53
2023-06-13T14:41:23.788Z,2.37
2023-06-13T14:43:52.007Z,2.60
2023-06-13T14:46:20.090Z,2.70
2023-06-13T14:48:48.225Z,2.70
2023-06-13T14:51:16.256Z,2.47
2023-06-13T14:53:44.217Z,2.50
2023-06-13T14:56:13.947Z,2.60
2023-06-13T14:58:41.860Z,2.80
2023-06-13T15:01:10.388Z,2.47
2023-06-13T15:03:41.171Z,2.20
2023-06-13T15:06:09.416Z,2.40
2023-06-13T15:08:38.133Z,1.93
2023-06-13T15:11:06.079Z,2.40
2023-06-13T15:13:36.372Z,2.60
2023-06-13T15:16:04.655Z,2.73
2023-06-13T15:18:34.574Z,2.23
2023-06-13T15:21:02.541Z,2.50
2023-06-13T15:23:30.747Z,2.47
2023-06-13T15:25:58.593Z,2.40
2023-06-13T15:28:26.705Z,2.10
2023-06-13T15:30:56.047Z,2.33
2023-06-13T15:33:24.535Z,2.23
2023-06-13T15:35:52.581Z,2.43
2023-06-13T15:38:20.598Z,2.50
2023-06-13T15:40:48.691Z,2.67
2023-06-13T15:43:16.577Z,2.67
2023-06-13T15:45:44.511Z,2.67
2023-06-13T15:48:13.783Z,2.87
2023-06-13T15:50:45.971Z,2.70
2023-06-13T15:53:14.013Z,2.20
2023-06-13T15:55:43.062Z,2.40
2023-06-13T15:58:12.086Z,2.30
2023-06-13T16:00:40.504Z,2.40
2023-06-13T16:03:09.069Z,2.33
2023-06-13T16:05:38.781Z,2.20
2023-06-13T16:08:07.025Z,2.50
2023-06-13T16:10:34.872Z,2.97
2023-06-13T16:13:03.806Z,4.10
2023-06-13T16:15:32.868Z,2.40
2023-06-13T16:18:01.129Z,2.67
2023-06-13T16:20:29.125Z,2.30
2023-06-13T16:23:00.259Z,2.37
2023-06-13T16:25:28.306Z,2.00
2023-06-13T16:27:56.266Z,2.10
2023-06-13T16:30:25.420Z,2.40
2023-06-13T16:32:54.855Z,2.30
2023-06-13T16:35:24.844Z,2.10
2023-06-13T16:37:53.048Z,2.20
2023-06-13T16:40:22.553Z,2.40
2023-06-13T16:42:51.236Z,2.30
2023-06-13T16:45:19.699Z,2.13
2023-06-13T16:47:47.996Z,2.03
2023-06-13T16:50:17.342Z,1.80
2023-06-13T16:52:45.936Z,1.70
2023-06-13T16:55:14.123Z,1.93
2023-06-13T16:57:43.607Z,1.70
2023-06-13T17:00:12.451Z,1.70
2023-06-13T17:02:40.596Z,1.70
2023-06-13T17:05:10.701Z,2.00
2023-06-13T17:07:39.775Z,2.10
2023-06-13T17:10:08.619Z,2.20
2023-06-13T17:12:43.458Z,1.80
2023-06-13T17:15:12.115Z,2.20
2023-06-13T17:17:40.378Z,2.17
2023-06-13T17:20:09.398Z,2.00
2023-06-13T17:22:37.664Z,1.83
2023-06-13T17:25:06.319Z,1.90
2023-06-13T17:27:34.263Z,2.03
2023-06-13T17:30:03.477Z,2.13
2023-06-13T17:32:32.226Z,2.20
2023-06-13T17:35:00.159Z,2.13
2023-06-13T17:37:28.621Z,1.90
2023-06-13T17:39:56.703Z,2.57
2023-06-13T17:42:24.721Z,2.23
2023-06-13T17:44:53.744Z,2.30
2023-06-13T17:47:23.142Z,1.60
2023-06-13T17:49:51.167Z,5.63
2023-06-13T17:52:19.104Z,2.00
2023-06-13T17:54:47.339Z,1.57
2023-06-13T17:57:15.311Z,2.47
2023-06-13T17:59:43.198Z,2.30
2023-06-13T18:02:12.467Z,2.33
2023-06-13T18:04:41.797Z,1.63
2023-06-13T18:07:10.032Z,1.63
2023-06-13T18:09:37.944Z,2.70
2023-06-13T18:12:16.997Z,1.70
2023-06-13T18:14:50.062Z,1.43
2023-06-13T18:17:18.068Z,2.30
2023-06-13T18:19:47.519Z,2.00
2023-06-13T18:22:16.406Z,1.93
2023-06-13T18:24:44.744Z,1.70
2023-06-13T18:27:13.374Z,1.67
2023-06-13T18:29:43.454Z,1.67
2023-06-13T18:32:13.075Z,2.10
2023-06-13T18:34:41.175Z,2.03
2023-06-13T18:37:10.502Z,1.80
2023-06-13T18:39:38.404Z,2.60
2023-06-13T18:42:07.654Z,1.70
2023-06-13T18:44:35.988Z,1.70
2023-06-13T18:47:04.014Z,2.10
2023-06-13T18:49:34.256Z,1.77
2023-06-13T18:52:03.839Z,1.80
2023-06-13T18:54:33.057Z,1.80
2023-06-13T18:57:01.575Z,2.03
2023-06-13T18:59:29.694Z,1.87
2023-06-13T19:01:57.699Z,1.97
2023-06-13T19:04:25.992Z,1.70
2023-06-13T19:06:54.365Z,2.00
2023-06-13T19:09:22.763Z,1.90
2023-06-13T19:11:52.033Z,2.10
2023-06-13T19:14:19.913Z,1.73
2023-06-13T19:16:47.840Z,2.10
2023-06-13T19:19:16.518Z,1.77
2023-06-13T19:21:46.476Z,2.07
2023-06-13T19:24:14.403Z,1.60
2023-06-13T19:26:43.672Z,1.90
2023-06-13T19:29:12.993Z,1.80
2023-06-13T19:31:40.896Z,1.70
2023-06-13T19:34:08.776Z,2.10
2023-06-13T19:36:36.673Z,1.87
2023-06-13T19:39:05.138Z,2.30
2023-06-13T19:41:33.110Z,2.00
2023-06-13T19:44:01.982Z,2.10
2023-06-13T19:46:31.626Z,2.10
2023-06-13T19:48:59.656Z,2.10
2023-06-13T19:51:28.981Z,2.10
2023-06-13T19:53:56.909Z,2.50
2023-06-13T19:56:25.651Z,2.63
2023-06-13T19:58:53.846Z,2.00
2023-06-13T20:01:22.892Z,2.00
2023-06-13T20:03:52.644Z,2.00
2023-06-13T20:06:21.287Z,2.17
2023-06-13T20:08:49.328Z,1.87
2023-06-13T20:11:18.209Z,2.00
2023-06-13T20:13:46.666Z,2.30
2023-06-13T20:16:17.012Z,3.50
2023-06-13T20:18:44.945Z,2.57
2023-06-13T20:21:14.285Z,2.57
2023-06-13T20:23:42.287Z,2.30
2023-06-13T20:26:10.349Z,2.27
2023-06-13T20:28:38.300Z,2.10
2023-06-13T20:31:06.574Z,2.47
2023-06-13T20:33:34.659Z,1.93
2023-06-13T20:36:02.667Z,2.43
2023-06-13T20:38:32.079Z,3.50
2023-06-13T20:40:59.990Z,2.37
2023-06-13T20:43:30.181Z,2.67
2023-06-13T20:46:00.586Z,2.30
2023-06-13T20:48:29.661Z,1.80
2023-06-13T20:50:59.002Z,2.90
2023-06-13T20:53:28.376Z,2.40
2023-06-13T20:55:57.619Z,2.70
2023-06-13T20:58:25.750Z,2.30
2023-06-13T21:00:56.576Z,2.30
2023-06-13T21:03:24.865Z,2.40
2023-06-13T21:05:53.235Z,2.10
2023-06-13T21:08:22.046Z,2.37
2023-06-13T21:10:50.059Z,2.10
2023-06-13T21:13:19.746Z,2.60
2023-06-13T21:15:50.179Z,2.30
2023-06-13T21:18:18.270Z,2.00
2023-06-13T21:20:46.288Z,2.50
2023-06-13T21:23:14.186Z,2.37
2023-06-13T21:25:42.231Z,2.40
2023-06-13T21:28:10.229Z,2.60
2023-06-13T21:30:39.410Z,2.40
2023-06-13T21:33:07.997Z,2.50
2023-06-13T21:35:36.002Z,2.37
2023-06-13T21:38:04.103Z,2.50
2023-06-13T21:40:32.074Z,2.47
2023-06-13T21:42:59.993Z,2.30
2023-06-13T21:45:32.351Z,2.50
2023-06-13T21:48:02.599Z,2.63
2023-06-13T21:50:31.728Z,2.80
2023-06-13T21:52:59.748Z,2.40
2023-06-13T21:55:27.612Z,2.30
2023-06-13T21:57:55.646Z,2.60
2023-06-13T22:00:24.477Z,2.20
2023-06-13T22:02:53.339Z,2.17
2023-06-13T22:05:23.099Z,2.73
2023-06-13T22:07:51.362Z,2.20
2023-06-13T22:10:20.214Z,2.50
2023-06-13T22:12:51.232Z,2.20
2023-06-13T22:15:19.641Z,2.30
2023-06-13T22:17:52.578Z,2.20
2023-06-13T22:20:24.832Z,3.10
2023-06-13T22:22:55.009Z,2.80
2023-06-13T22:25:23.593Z,2.50
2023-06-13T22:27:53.425Z,2.40
2023-06-13T22:30:22.251Z,2.87
2023-06-13T22:32:51.729Z,2.50
2023-06-13T22:35:20.277Z,2.50
2023-06-13T22:37:50.561Z,2.57
2023-06-13T22:40:19.040Z,2.30
2023-06-13T22:42:47.449Z,2.20
2023-06-13T22:45:15.588Z,2.70
2023-06-13T22:47:43.518Z,2.40
2023-06-13T22:50:12.180Z,2.50
2023-06-13T22:52:41.994Z,2.57
2023-06-13T22:55:11.428Z,2.13
2023-06-13T22:57:39.340Z,2.10
2023-06-13T23:00:11.661Z,2.50
2023-06-13T23:02:39.838Z,2.50
2023-06-13T23:05:08.640Z,2.37
2023-06-13T23:07:36.738Z,2.40
2023-06-13T23:10:05.368Z,2.50
2023-06-13T23:12:34.740Z,2.40
2023-06-13T23:15:02.689Z,2.27
2023-06-13T23:17:31.103Z,2.63
2023-06-13T23:19:59.294Z,2.40
2023-06-13T23:22:29.092Z,2.50
2023-06-13T23:24:57.612Z,2.60
2023-06-13T23:27:26.068Z,2.70
2023-06-13T23:29:57.613Z,2.70
2023-06-13T23:32:29.044Z,3.00
2023-06-13T23:34:58.491Z,3.20
2023-06-13T23:37:29.028Z,3.17
2023-06-13T23:39:57.006Z,3.27
2023-06-13T23:42:26.422Z,3.07
2023-06-13T23:44:55.757Z,2.60
2023-06-13T23:47:23.841Z,2.77
